createdAt,value
2023-11-24T00:00:57.643Z,7.20
2023-11-24T00:03:26.559Z,7.20
2023-11-24T00:05:55.080Z,7.20
2023-11-24T00:08:23.420Z,7.10
2023-11-24T00:10:53.038Z,7.10
2023-11-24T00:13:22.254Z,7.20
2023-11-24T00:15:52.855Z,7.10
2023-11-24T00:18:22.523Z,7.20
2023-11-24T00:20:50.927Z,7.20
2023-11-24T00:23:20.135Z,7.30
2023-11-24T00:25:48.806Z,7.20
2023-11-24T00:28:19.931Z,7.20
2023-11-24T00:30:49.619Z,7.30
2023-11-24T00:33:19.899Z,7.20
2023-11-24T00:35:48.380Z,7.30
2023-11-24T00:38:17.111Z,7.30
2023-11-24T00:40:45.393Z,7.30
2023-11-24T00:43:16.556Z,7.30
2023-11-24T00:45:46.265Z,7.30
2023-11-24T00:48:14.514Z,7.30
2023-11-24T00:50:42.947Z,7.20
2023-11-24T00:53:11.255Z,7.30
2023-11-24T00:55:39.609Z,7.30
2023-11-24T00:58:08.211Z,7.30
2023-11-24T01:00:38.051Z,7.40
2023-11-24T01:03:07.671Z,7.30
2023-11-24T01:05:36.067Z,7.20
2023-11-24T01:08:04.856Z,7.10
2023-11-24T01:10:33.284Z,7.10
2023-11-24T01:13:01.770Z,7.00
2023-11-24T01:15:30.146Z,7.00
2023-11-24T01:17:58.699Z,7.00
2023-11-24T01:20:28.361Z,7.00
2023-11-24T01:22:57.073Z,6.90
2023-11-24T01:25:25.210Z,6.90
2023-11-24T01:27:53.455Z,6.90
2023-11-24T01:30:22.125Z,6.80
2023-11-24T01:32:50.440Z,6.80
2023-11-24T01:35:20.021Z,6.70
2023-11-24T01:37:49.735Z,6.80
2023-11-24T01:40:19.457Z,6.80
2023-11-24T01:42:47.765Z,6.60
2023-11-24T01:45:16.155Z,6.40
2023-11-24T01:47:45.374Z,6.20
2023-11-24T01:50:14.381Z,6.00
2023-11-24T01:52:43.930Z,5.80
2023-11-24T01:55:15.332Z,5.80
2023-11-24T01:57:44.270Z,5.60
2023-11-24T02:00:15.053Z,5.60
2023-11-24T02:02:43.804Z,5.50
2023-11-24T02:05:12.899Z,5.50
2023-11-24T02:07:42.460Z,5.50
2023-11-24T02:10:15.540Z,5.40
2023-11-24T02:12:43.882Z,5.50
2023-11-24T02:15:12.370Z,5.40
2023-11-24T02:17:40.849Z,5.40
2023-11-24T02:20:14.927Z,5.50
2023-11-24T02:22:45.360Z,5.40
2023-11-24T02:25:14.220Z,5.50
2023-11-24T02:27:42.586Z,5.40
2023-11-24T02:30:12.892Z,5.40
2023-11-24T02:32:41.418Z,5.50
2023-11-24T02:35:11.091Z,5.40
2023-11-24T02:37:39.777Z,5.50
2023-11-24T02:40:11.126Z,5.50
2023-11-24T02:42:39.563Z,5.50
2023-11-24T02:45:08.960Z,5.50
2023-11-24T02:47:37.212Z,5.50
2023-11-24T02:50:06.006Z,5.40
2023-11-24T02:52:34.257Z,5.50
2023-11-24T02:55:03.323Z,5.50
2023-11-24T02:57:33.954Z,5.40
2023-11-24T03:00:03.145Z,5.40
2023-11-24T03:02:31.705Z,5.40
2023-11-24T03:05:00.262Z,5.40
2023-11-24T03:07:28.907Z,5.30
2023-11-24T03:09:57.363Z,5.30
2023-11-24T03:12:25.788Z,5.20
2023-11-24T03:14:55.522Z,5.20
2023-11-24T03:17:23.745Z,5.20
2023-11-24T03:19:51.912Z,5.20
2023-11-24T03:22:21.497Z,5.20
2023-11-24T03:24:49.751Z,5.20
2023-11-24T03:27:18.077Z,5.20
2023-11-24T03:29:46.422Z,5.20
2023-11-24T03:32:16.102Z,5.20
2023-11-24T03:34:44.429Z,5.20
2023-11-24T03:37:12.806Z,5.20
2023-11-24T03:39:41.041Z,5.20
2023-11-24T03:42:09.461Z,5.20
2023-11-24T03:44:39.512Z,5.30
2023-11-24T03:47:08.052Z,5.30
2023-11-24T03:49:37.632Z,5.40
2023-11-24T03:52:07.495Z,5.40
2023-11-24T03:54:35.843Z,5.50
2023-11-24T03:57:04.354Z,5.50
2023-11-24T03:59:33.908Z,5.50
2023-11-24T04:02:02.238Z,5.50
2023-11-24T04:04:30.712Z,5.70
2023-11-24T04:07:03.286Z,5.80
2023-11-24T04:09:31.572Z,5.70
2023-11-24T04:11:59.894Z,5.70
2023-11-24T04:14:28.715Z,5.80
2023-11-24T04:17:01.510Z,5.80
2023-11-24T04:19:29.910Z,5.80
2023-11-24T04:21:58.102Z,5.80
2023-11-24T04:24:27.757Z,5.80
2023-11-24T04:26:56.055Z,5.90
2023-11-24T04:29:25.424Z,5.80
2023-11-24T04:31:55.697Z,5.80
2023-11-24T04:34:25.134Z,5.70
2023-11-24T04:36:54.909Z,5.70
2023-11-24T04:39:23.303Z,5.60
2023-11-24T04:41:53.527Z,5.60
2023-11-24T04:44:23.544Z,5.60
2023-11-24T04:46:51.828Z,5.50
2023-11-24T04:49:20.878Z,5.50
2023-11-24T04:51:49.050Z,5.50
2023-11-24T04:54:17.346Z,5.60
2023-11-24T04:56:48.236Z,5.50
2023-11-24T04:59:19.958Z,5.50
2023-11-24T05:01:48.605Z,5.50
2023-11-24T05:04:16.968Z,5.50
2023-11-24T05:06:45.298Z,5.60
2023-11-24T05:09:14.232Z,5.50
2023-11-24T05:11:42.526Z,5.50
2023-11-24T05:14:10.988Z,5.50
2023-11-24T05:16:40.839Z,5.50
2023-11-24T05:19:09.156Z,5.60
2023-11-24T05:21:39.972Z,5.60
2023-11-24T05:24:10.245Z,5.70
2023-11-24T05:26:38.424Z,5.60
2023-11-24T05:29:06.739Z,5.60
2023-11-24T05:31:34.967Z,5.60
2023-11-24T05:34:05.043Z,5.70
2023-11-24T05:36:34.791Z,5.70
2023-11-24T05:39:03.025Z,5.70
2023-11-24T05:41:31.292Z,5.70
2023-11-24T05:43:59.906Z,5.70
2023-11-24T05:46:29.659Z,5.70
2023-11-24T05:48:58.112Z,5.70
2023-11-24T05:51:28.027Z,5.80
2023-11-24T05:53:56.454Z,5.70
2023-11-24T05:56:24.794Z,5.70
2023-11-24T05:58:53.564Z,5.70
2023-11-24T06:01:22.443Z,5.70
2023-11-24T06:03:51.751Z,5.70
2023-11-24T06:06:20.353Z,5.70
2023-11-24T06:08:50.193Z,5.70
2023-11-24T06:11:19.378Z,5.60
2023-11-24T06:13:57.807Z,5.60
2023-11-24T06:16:27.436Z,5.60
2023-11-24T06:18:56.472Z,5.60
2023-11-24T06:21:26.894Z,5.60
2023-11-24T06:23:59.596Z,5.40
2023-11-24T06:26:28.953Z,5.40
2023-11-24T06:28:57.966Z,5.40
2023-11-24T06:31:27.056Z,5.40
2023-11-24T06:34:04.375Z,5.40
2023-11-24T06:36:35.905Z,5.30
2023-11-24T06:39:12.767Z,5.30
2023-11-24T06:41:41.038Z,5.20
2023-11-24T06:44:09.716Z,5.20
2023-11-24T06:46:38.483Z,5.20
2023-11-24T06:49:08.227Z,5.20
2023-11-24T06:51:37.262Z,5.20
2023-11-24T06:54:07.408Z,5.20
2023-11-24T06:56:35.706Z,5.20
2023-11-24T06:59:04.214Z,5.30
2023-11-24T07:01:34.191Z,5.30
2023-11-24T07:04:03.142Z,5.30
2023-11-24T07:06:31.659Z,5.30
2023-11-24T07:09:00.277Z,5.30
2023-11-24T07:11:29.990Z,5.40
2023-11-24T07:13:58.420Z,5.50
2023-11-24T07:16:27.145Z,5.40
2023-11-24T07:18:55.701Z,5.50
2023-11-24T07:21:24.118Z,5.60
2023-11-24T07:23:52.383Z,5.50
2023-11-24T07:26:20.896Z,5.60
2023-11-24T07:28:50.615Z,5.60
2023-11-24T07:31:19.310Z,5.70
2023-11-24T07:33:50.469Z,5.70
2023-11-24T07:36:20.464Z,5.70
2023-11-24T07:38:48.813Z,5.70
2023-11-24T07:41:17.572Z,5.80
2023-11-24T07:43:45.848Z,5.80
2023-11-24T07:46:15.476Z,5.80
2023-11-24T07:48:45.227Z,5.90
2023-11-24T07:51:13.706Z,5.90
2023-11-24T07:53:42.031Z,5.90
2023-11-24T07:56:10.527Z,6.00
2023-11-24T07:58:39.153Z,6.00
2023-11-24T08:01:09.112Z,6.00
2023-11-24T08:03:38.973Z,6.00
2023-11-24T08:06:09.139Z,6.00
2023-11-24T08:08:37.712Z,6.00
2023-11-24T08:11:06.850Z,6.00
2023-11-24T08:13:35.796Z,6.00
2023-11-24T08:16:04.963Z,6.00
2023-11-24T08:18:34.451Z,6.00
2023-11-24T08:21:04.334Z,6.00
2023-11-24T08:23:32.731Z,6.00
2023-11-24T08:26:00.985Z,6.10
2023-11-24T08:28:31.746Z,6.10
2023-11-24T08:31:06.500Z,6.20
2023-11-24T08:33:34.747Z,6.20
2023-11-24T08:36:05.660Z,6.30
2023-11-24T08:38:35.910Z,6.40
2023-11-24T08:41:10.802Z,6.30
2023-11-24T08:43:39.392Z,6.50
2023-11-24T08:46:09.063Z,6.80
2023-11-24T08:48:37.525Z,7.30
2023-11-24T08:51:09.227Z,7.90
2023-11-24T08:53:37.805Z,8.30
2023-11-24T08:56:06.617Z,8.90
2023-11-24T08:58:34.954Z,9.40
2023-11-24T09:01:03.395Z,9.60
2023-11-24T09:03:31.728Z,9.50
2023-11-24T09:06:00.221Z,9.50
2023-11-24T09:08:29.925Z,9.40
2023-11-24T09:41:10.134Z,7.80
2023-11-24T09:44:05.526Z,7.70
2023-11-24T09:46:46.630Z,7.60
2023-11-24T09:49:33.360Z,7.50
2023-11-24T09:52:05.404Z,7.30
2023-11-24T09:54:33.777Z,7.20
2023-11-24T09:57:02.241Z,7.10
2023-11-24T09:59:31.941Z,7.00
2023-11-24T10:02:02.222Z,6.90
2023-11-24T10:04:31.691Z,7.00
2023-11-24T10:07:00.363Z,7.00
2023-11-24T10:09:29.565Z,7.00
2023-11-24T10:11:59.948Z,7.10
2023-11-24T10:14:28.174Z,7.30
2023-11-24T10:16:57.849Z,7.70
2023-11-24T10:19:28.736Z,8.20
2023-11-24T10:21:58.265Z,8.90
2023-11-24T10:24:33.306Z,9.70
2023-11-24T10:27:19.529Z,10.50
2023-11-24T10:29:48.354Z,10.90
2023-11-24T10:32:18.276Z,10.80
2023-11-24T10:34:47.734Z,10.50
2023-11-24T10:37:18.605Z,10.50
2023-11-24T10:39:48.296Z,10.70
2023-11-24T10:42:20.434Z,11.10
2023-11-24T10:44:56.676Z,11.30
2023-11-24T10:47:31.378Z,11.10
2023-11-24T10:50:05.581Z,10.90
2023-11-24T10:52:38.370Z,10.70
2023-11-24T10:55:11.993Z,10.40
2023-11-24T10:57:42.106Z,10.30
2023-11-24T11:00:15.631Z,10.20
2023-11-24T11:02:45.658Z,10.00
2023-11-24T11:05:25.826Z,9.80
2023-11-24T11:11:27.119Z,9.50
2023-11-24T11:13:58.911Z,9.30
2023-11-24T11:16:27.339Z,9.20
2023-11-24T11:18:57.593Z,9.00
2023-11-24T11:21:41.252Z,8.90
2023-11-24T11:24:25.128Z,8.70
2023-11-24T11:26:54.268Z,8.40
2023-11-24T11:29:24.541Z,8.30
2023-11-24T11:31:53.510Z,8.20
2023-11-24T11:34:31.124Z,8.10
2023-11-24T11:37:08.020Z,8.00
2023-11-24T11:39:38.636Z,7.80
2023-11-24T11:42:10.544Z,7.80
2023-11-24T11:44:41.302Z,7.70
2023-11-24T11:47:27.823Z,7.60
2023-11-24T11:49:59.088Z,7.60
2023-11-24T11:52:28.715Z,7.60
2023-11-24T11:54:59.685Z,7.50
2023-11-24T11:57:29.110Z,7.50
2023-11-24T11:59:57.769Z,7.50
2023-11-24T12:02:26.485Z,7.50
2023-11-24T12:04:54.929Z,7.40
2023-11-24T12:07:24.720Z,7.40
2023-11-24T12:09:55.342Z,7.50
2023-11-24T12:12:24.380Z,7.40
2023-11-24T12:14:55.911Z,7.40
2023-11-24T12:17:25.293Z,7.30
2023-11-24T12:19:55.031Z,7.30
2023-11-24T12:22:25.154Z,7.30
2023-11-24T12:24:54.559Z,7.30
2023-11-24T12:27:23.384Z,7.30
2023-11-24T12:29:52.986Z,7.20
2023-11-24T12:32:26.552Z,7.20
2023-11-24T12:34:55.195Z,7.10
2023-11-24T12:37:25.216Z,7.00
2023-11-24T12:39:53.712Z,7.00
2023-11-24T12:42:23.755Z,6.90
2023-11-24T12:44:52.969Z,6.90
2023-11-24T12:47:41.380Z,6.80
2023-11-24T12:50:14.189Z,6.90
2023-11-24T12:52:46.344Z,6.80
2023-11-24T12:55:15.108Z,6.70
2023-11-24T12:57:44.564Z,6.60
2023-11-24T13:00:16.590Z,6.60
2023-11-24T13:02:46.801Z,6.50
2023-11-24T13:05:17.651Z,6.50
2023-11-24T13:07:49.005Z,6.40
2023-11-24T13:10:18.572Z,6.40
2023-11-24T13:12:47.166Z,6.50
2023-11-24T13:15:16.429Z,6.40
2023-11-24T13:17:45.221Z,6.40
2023-11-24T13:20:14.750Z,6.30
2023-11-24T13:22:44.982Z,6.30
2023-11-24T13:25:15.686Z,6.30
2023-11-24T13:28:16.356Z,6.30
2023-11-24T13:33:41.352Z,6.20
2023-11-24T13:36:10.428Z,6.00
2023-11-24T13:41:53.354Z,5.90
2023-11-24T13:44:22.999Z,5.90
2023-11-24T13:46:52.839Z,5.80
2023-11-24T13:49:23.658Z,5.80
2023-11-24T13:52:05.288Z,5.70
2023-11-24T13:54:35.118Z,5.70
2023-11-24T13:57:05.165Z,5.70
2023-11-24T13:59:33.375Z,5.60
2023-11-24T14:02:01.934Z,5.50
2023-11-24T14:04:34.273Z,5.50
2023-11-24T14:07:03.767Z,5.40
2023-11-24T14:09:33.443Z,5.40
2023-11-24T14:12:02.107Z,5.30
2023-11-24T14:14:31.713Z,5.30
2023-11-24T14:17:03.190Z,5.30
2023-11-24T14:19:31.748Z,5.20
2023-11-24T14:22:02.004Z,5.30
2023-11-24T14:24:30.332Z,5.20
2023-11-24T14:26:58.651Z,5.20
2023-11-24T14:29:29.353Z,5.10
2023-11-24T14:31:59.256Z,5.10
2023-11-24T14:34:27.524Z,5.10
2023-11-24T14:36:55.840Z,5.00
2023-11-24T14:39:27.960Z,5.00
2023-11-24T14:41:56.677Z,5.00
2023-11-24T14:44:25.492Z,5.00
2023-11-24T14:46:54.085Z,5.00
2023-11-24T14:49:24.130Z,5.00
2023-11-24T14:51:53.635Z,5.10
2023-11-24T14:54:24.396Z,5.00
2023-11-24T14:56:52.734Z,5.00
2023-11-24T14:59:21.200Z,4.90
2023-11-24T15:01:59.172Z,4.80
2023-11-24T15:04:32.210Z,4.80
2023-11-24T15:07:02.073Z,4.80
2023-11-24T15:09:31.432Z,4.70
2023-11-24T15:11:59.652Z,4.70
2023-11-24T15:14:34.505Z,4.60
2023-11-24T15:17:06.308Z,4.60
2023-11-24T15:19:40.183Z,4.60
2023-11-24T15:22:19.961Z,4.70
2023-11-24T15:24:50.800Z,4.50
2023-11-24T15:27:19.980Z,4.50
2023-11-24T15:29:48.259Z,4.50
2023-11-24T15:32:21.142Z,4.40
2023-11-24T15:34:52.868Z,4.40
2023-11-24T15:37:21.415Z,4.40
2023-11-24T15:39:57.739Z,4.30
2023-11-24T15:42:30.237Z,4.20
2023-11-24T15:45:00.411Z,4.20
2023-11-24T15:47:30.022Z,4.10
2023-11-24T15:50:01.812Z,4.10
2023-11-24T15:52:30.263Z,4.00
2023-11-24T15:54:58.883Z,4.00
2023-11-24T15:57:29.291Z,3.90
2023-11-24T16:00:02.541Z,3.90
2023-11-24T16:02:40.209Z,3.90
2023-11-24T16:05:13.477Z,3.90
2023-11-24T16:07:42.652Z,3.80
2023-11-24T16:10:17.919Z,3.80
2023-11-24T16:12:48.460Z,3.80
2023-11-24T16:15:18.182Z,3.70
2023-11-24T16:17:48.527Z,3.70
2023-11-24T16:20:18.622Z,3.70
2023-11-24T16:22:47.039Z,3.70
2023-11-24T16:25:15.352Z,3.70
2023-11-24T16:27:43.561Z,3.70
2023-11-24T16:30:12.025Z,3.60
2023-11-24T16:32:40.679Z,3.60
2023-11-24T16:35:10.360Z,3.60
2023-11-24T16:37:40.304Z,3.50
2023-11-24T16:40:10.446Z,3.50
2023-11-24T16:42:38.941Z,3.40
2023-11-24T16:45:09.972Z,3.30
2023-11-24T16:47:39.066Z,3.30
2023-11-24T16:50:09.351Z,3.10
2023-11-24T16:52:47.365Z,3.20
2023-11-24T16:55:17.673Z,3.30
2023-11-24T16:57:46.079Z,3.10
2023-11-24T17:00:17.011Z,3.20
2023-11-24T17:02:49.968Z,3.20
2023-11-24T17:05:19.681Z,3.20
2023-11-24T17:07:49.588Z,3.20
2023-11-24T17:10:19.182Z,3.30
2023-11-24T17:12:47.807Z,3.30
2023-11-24T17:15:23.329Z,3.20
2023-11-24T17:17:53.415Z,3.20
2023-11-24T17:20:21.965Z,3.20
2023-11-24T17:22:51.698Z,3.20
2023-11-24T17:25:28.359Z,3.20
2023-11-24T17:28:03.871Z,3.20
2023-11-24T17:30:42.918Z,3.20
2023-11-24T17:33:11.644Z,3.20
2023-11-24T17:35:45.773Z,3.10
2023-11-24T17:38:22.117Z,3.00
2023-11-24T17:40:50.867Z,3.00
2023-11-24T17:43:19.426Z,2.90
2023-11-24T17:45:49.228Z,3.00
2023-11-24T17:48:19.206Z,2.90
2023-11-24T17:50:48.572Z,2.80
2023-11-24T17:53:19.797Z,2.90
2023-11-24T17:55:48.832Z,2.80
2023-11-24T17:58:17.834Z,2.80
2023-11-24T18:00:46.820Z,2.80
2023-11-24T18:03:15.459Z,2.70
2023-11-24T18:05:44.779Z,2.70
2023-11-24T18:09:05.063Z,2.60
2023-11-24T18:34:29.390Z,2.70
2023-11-24T18:36:59.154Z,2.70
2023-11-24T18:39:29.528Z,2.70
2023-11-24T18:42:02.263Z,2.70
2023-11-24T18:44:30.797Z,2.60
2023-11-24T18:46:59.917Z,2.60
2023-11-24T18:49:32.490Z,2.70
2023-11-24T18:52:01.001Z,2.70
2023-11-24T18:54:29.991Z,2.70
2023-11-24T18:56:59.453Z,2.80
2023-11-24T18:59:27.684Z,2.80
2023-11-24T19:01:58.445Z,2.80
2023-11-24T19:04:26.899Z,2.80
2023-11-24T19:06:57.003Z,2.80
2023-11-24T19:09:25.723Z,2.80
2023-11-24T19:11:54.188Z,2.90
2023-11-24T19:14:25.274Z,2.90
2023-11-24T19:16:54.229Z,2.90
2023-11-24T19:19:22.659Z,3.00
2023-11-24T19:21:51.185Z,3.00
2023-11-24T19:24:20.825Z,3.00
2023-11-24T19:26:49.244Z,3.10
2023-11-24T19:29:17.583Z,3.10
2023-11-24T19:31:46.238Z,3.10
2023-11-24T19:34:15.149Z,3.10
2023-11-24T19:36:46.064Z,3.10
2023-11-24T19:39:14.490Z,3.20
2023-11-24T19:41:44.261Z,3.20
2023-11-24T19:44:13.842Z,3.20
2023-11-24T19:46:42.488Z,3.30
2023-11-24T19:49:11.375Z,3.30
2023-11-24T19:51:39.909Z,3.30
2023-11-24T19:54:09.410Z,3.30
2023-11-24T19:56:37.972Z,3.30
2023-11-24T19:59:07.815Z,3.40
2023-11-24T20:01:38.226Z,3.50
2023-11-24T20:04:08.189Z,3.40
2023-11-24T20:06:37.056Z,3.40
2023-11-24T20:09:09.790Z,3.40
2023-11-24T20:11:38.011Z,3.40
2023-11-24T20:14:10.053Z,3.40
2023-11-24T20:16:38.405Z,3.50
2023-11-24T20:19:06.946Z,3.40
2023-11-24T20:21:35.282Z,3.40
2023-11-24T20:24:03.692Z,3.40
2023-11-24T20:26:32.812Z,3.40
2023-11-24T20:29:01.032Z,3.40
2023-11-24T20:31:30.643Z,3.40
2023-11-24T20:33:59.168Z,3.50
2023-11-24T20:36:27.552Z,3.50
2023-11-24T20:38:56.113Z,3.60
2023-11-24T20:41:24.462Z,3.60
2023-11-24T20:43:52.796Z,3.60
2023-11-24T20:46:21.092Z,3.60
2023-11-24T20:48:50.783Z,3.60
2023-11-24T20:51:19.387Z,3.60
2023-11-24T20:53:47.573Z,3.60
2023-11-24T20:56:15.818Z,3.70
2023-11-24T20:58:43.992Z,3.80
2023-11-24T21:01:13.031Z,3.70
2023-11-24T21:03:42.444Z,3.70
2023-11-24T21:06:12.070Z,3.80
2023-11-24T21:08:40.372Z,3.70
2023-11-24T21:11:08.619Z,3.70
2023-11-24T21:13:37.008Z,3.70
2023-11-24T21:16:06.218Z,3.80
2023-11-24T21:18:34.494Z,3.80
2023-11-24T21:21:02.765Z,3.80
2023-11-24T21:23:32.351Z,3.80
2023-11-24T21:26:00.646Z,3.80
2023-11-24T21:28:29.061Z,3.80
2023-11-24T21:30:57.377Z,3.80
2023-11-24T21:33:25.984Z,3.80
2023-11-24T21:35:54.415Z,3.80
2023-11-24T21:38:22.693Z,3.70
2023-11-24T21:40:52.456Z,3.80
2023-11-24T21:43:20.721Z,3.80
2023-11-24T21:45:49.226Z,3.80
2023-11-24T21:48:17.690Z,3.80
2023-11-24T21:50:46.008Z,3.80
2023-11-24T21:53:15.729Z,3.90
2023-11-24T21:58:13.916Z,3.80
2023-11-24T22:00:42.245Z,3.80
2023-11-24T22:03:10.787Z,3.90
2023-11-24T22:05:39.904Z,3.80
2023-11-24T22:08:08.225Z,3.80
2023-11-24T22:10:37.538Z,3.80
2023-11-24T22:13:05.818Z,3.90
2023-11-24T22:15:37.764Z,3.90
2023-11-24T22:18:12.958Z,3.90
2023-11-24T22:20:41.600Z,3.80
2023-11-24T22:23:09.865Z,3.80
2023-11-24T22:25:38.319Z,3.80
2023-11-24T22:28:07.130Z,3.80
2023-11-24T22:30:35.790Z,3.80
2023-11-24T22:33:05.960Z,3.90
2023-11-24T22:35:34.318Z,3.90
2023-11-24T22:38:02.992Z,3.80
2023-11-24T22:40:33.682Z,3.70
2023-11-24T22:43:01.903Z,3.80
2023-11-24T22:45:33.297Z,3.70
2023-11-24T22:48:01.632Z,3.60
2023-11-24T22:50:31.346Z,3.70
2023-11-24T22:52:59.531Z,3.70
2023-11-24T22:55:28.374Z,3.60
2023-11-24T22:57:59.178Z,3.70
2023-11-24T23:00:37.757Z,3.70
2023-11-24T23:03:06.283Z,3.60
2023-11-24T23:05:36.507Z,3.70
2023-11-24T23:08:04.895Z,3.70
2023-11-24T23:10:33.505Z,3.60
2023-11-24T23:13:03.054Z,3.60
2023-11-24T23:15:32.659Z,3.60
2023-11-24T23:18:01.406Z,3.50
2023-11-24T23:20:30.287Z,3.50
2023-11-24T23:22:59.886Z,3.50
2023-11-24T23:25:28.270Z,3.50
2023-11-24T23:27:56.993Z,3.60
2023-11-24T23:30:25.444Z,3.50
2023-11-24T23:32:56.354Z,3.50
2023-11-24T23:35:28.986Z,3.50
2023-11-24T23:37:59.067Z,3.50
2023-11-24T23:40:29.195Z,3.50
2023-11-24T23:42:57.627Z,3.50
2023-11-24T23:45:26.313Z,3.50
2023-11-24T23:47:54.862Z,3.50
2023-11-24T23:50:30.487Z,3.60
2023-11-24T23:53:01.392Z,3.50
2023-11-24T23:55:32.038Z,3.60
2023-11-24T23:58:00.311Z,3.60
